sensor_id;sensor_type;location;lat;lon;timestamp;P1;durP1;ratioP1;P2;durP2;ratioP2
77123;SDS011;66079;47.646;19.130;2023-04-30T00:00:59;13.52;;;10.02;;
77123;SDS011;66079;47.646;19.130;2023-04-30T00:04:02;14.27;;;10.02;;
77123;SDS011;66079;47.646;19.130;2023-04-30T00:07:04;14.43;;;9.47;;
77123;SDS011;66079;47.646;19.130;2023-04-30T00:10:08;14.45;;;10.20;;
77123;SDS011;66079;47.646;19.130;2023-04-30T00:13:12;18.95;;;11.98;;
77123;SDS011;66079;47.646;19.130;2023-04-30T00:16:15;17.20;;;11.75;;
77123;SDS011;66079;47.646;19.130;2023-04-30T00:19:17;16.17;;;10.40;;
77123;SDS011;66079;47.646;19.130;2023-04-30T00:22:20;15.80;;;10.77;;
77123;SDS011;66079;47.646;19.130;2023-04-30T00:25:23;17.38;;;11.07;;
77123;SDS011;66079;47.646;19.130;2023-04-30T00:28:26;18.30;;;12.52;;
77123;SDS011;66079;47.646;19.130;2023-04-30T00:31:28;13.77;;;10.48;;
77123;SDS011;66079;47.646;19.130;2023-04-30T00:34:31;14.77;;;10.52;;
77123;SDS011;66079;47.646;19.130;2023-04-30T00:37:34;16.57;;;10.87;;
77123;SDS011;66079;47.646;19.130;2023-04-30T00:40:37;15.82;;;10.35;;
77123;SDS011;66079;47.646;19.130;2023-04-30T00:43:43;15.18;;;10.63;;
77123;SDS011;66079;47.646;19.130;2023-04-30T00:46:48;13.98;;;10.55;;
77123;SDS011;66079;47.646;19.130;2023-04-30T00:49:50;14.57;;;10.93;;
77123;SDS011;66079;47.646;19.130;2023-04-30T00:52:53;18.07;;;12.47;;
77123;SDS011;66079;47.646;19.130;2023-04-30T00:55:57;18.60;;;12.13;;
77123;SDS011;66079;47.646;19.130;2023-04-30T00:59:00;16.30;;;10.80;;
77123;SDS011;66079;47.646;19.130;2023-04-30T01:02:03;14.73;;;11.00;;
77123;SDS011;66079;47.646;19.130;2023-04-30T01:05:06;17.45;;;10.75;;
77123;SDS011;66079;47.646;19.130;2023-04-30T01:08:09;16.83;;;10.63;;
77123;SDS011;66079;47.646;19.130;2023-04-30T01:18:22;15.32;;;10.98;;
77123;SDS011;66079;47.646;19.130;2023-04-30T01:21:29;16.45;;;10.55;;
77123;SDS011;66079;47.646;19.130;2023-04-30T01:28:08;14.38;;;10.48;;
77123;SDS011;66079;47.646;19.130;2023-04-30T01:31:26;13.63;;;9.63;;
77123;SDS011;66079;47.646;19.130;2023-04-30T01:34:29;13.48;;;10.45;;
77123;SDS011;66079;47.646;19.130;2023-04-30T01:44:36;14.05;;;10.23;;
77123;SDS011;66079;47.646;19.130;2023-04-30T01:47:52;13.63;;;10.40;;
77123;SDS011;66079;47.646;19.130;2023-04-30T01:54:43;11.75;;;9.90;;
77123;SDS011;66079;47.646;19.130;2023-04-30T01:57:59;15.27;;;9.70;;
77123;SDS011;66079;47.646;19.130;2023-04-30T02:01:04;16.77;;;12.43;;
77123;SDS011;66079;47.646;19.130;2023-04-30T02:04:07;15.50;;;10.70;;
77123;SDS011;66079;47.646;19.130;2023-04-30T02:07:10;14.70;;;10.88;;
77123;SDS011;66079;47.646;19.130;2023-04-30T02:10:15;16.17;;;10.63;;
77123;SDS011;66079;47.646;19.130;2023-04-30T02:13:18;15.47;;;10.37;;
77123;SDS011;66079;47.646;19.130;2023-04-30T02:16:21;13.50;;;9.73;;
77123;SDS011;66079;47.646;19.130;2023-04-30T02:19:25;13.30;;;10.32;;
77123;SDS011;66079;47.646;19.130;2023-04-30T02:22:27;16.75;;;10.38;;
77123;SDS011;66079;47.646;19.130;2023-04-30T02:25:30;15.32;;;10.32;;
77123;SDS011;66079;47.646;19.130;2023-04-30T02:28:34;15.97;;;10.43;;
77123;SDS011;66079;47.646;19.130;2023-04-30T02:31:37;15.13;;;10.43;;
77123;SDS011;66079;47.646;19.130;2023-04-30T02:34:43;14.15;;;10.68;;
77123;SDS011;66079;47.646;19.130;2023-04-30T02:37:46;14.15;;;10.68;;
77123;SDS011;66079;47.646;19.130;2023-04-30T02:40:48;16.17;;;10.60;;
77123;SDS011;66079;47.646;19.130;2023-04-30T02:43:51;15.27;;;10.50;;
77123;SDS011;66079;47.646;19.130;2023-04-30T02:46:54;13.88;;;9.65;;
77123;SDS011;66079;47.646;19.130;2023-04-30T02:49:56;15.18;;;10.30;;
77123;SDS011;66079;47.646;19.130;2023-04-30T02:52:59;14.88;;;10.05;;
77123;SDS011;66079;47.646;19.130;2023-04-30T02:56:01;13.63;;;9.95;;
77123;SDS011;66079;47.646;19.130;2023-04-30T02:59:04;13.37;;;9.40;;
77123;SDS011;66079;47.646;19.130;2023-04-30T03:02:07;13.00;;;9.63;;
77123;SDS011;66079;47.646;19.130;2023-04-30T03:05:10;14.23;;;10.27;;
77123;SDS011;66079;47.646;19.130;2023-04-30T03:08:12;23.48;;;12.95;;
77123;SDS011;66079;47.646;19.130;2023-04-30T03:11:15;18.30;;;12.88;;
77123;SDS011;66079;47.646;19.130;2023-04-30T03:14:18;18.47;;;12.80;;
77123;SDS011;66079;47.646;19.130;2023-04-30T03:17:20;17.10;;;11.70;;
77123;SDS011;66079;47.646;19.130;2023-04-30T03:20:24;16.25;;;11.75;;
77123;SDS011;66079;47.646;19.130;2023-04-30T03:23:27;16.48;;;11.82;;
77123;SDS011;66079;47.646;19.130;2023-04-30T03:26:30;16.40;;;11.00;;
77123;SDS011;66079;47.646;19.130;2023-04-30T03:29:33;17.50;;;11.77;;
77123;SDS011;66079;47.646;19.130;2023-04-30T03:32:36;19.42;;;12.52;;
77123;SDS011;66079;47.646;19.130;2023-04-30T03:35:38;23.08;;;13.30;;
77123;SDS011;66079;47.646;19.130;2023-04-30T03:38:41;19.42;;;12.63;;
77123;SDS011;66079;47.646;19.130;2023-04-30T03:41:44;18.20;;;12.80;;
77123;SDS011;66079;47.646;19.130;2023-04-30T03:44:46;19.10;;;12.37;;
77123;SDS011;66079;47.646;19.130;2023-04-30T03:47:49;20.25;;;13.05;;
77123;SDS011;66079;47.646;19.130;2023-04-30T03:50:52;17.30;;;12.38;;
77123;SDS011;66079;47.646;19.130;2023-04-30T03:53:55;18.67;;;12.50;;
77123;SDS011;66079;47.646;19.130;2023-04-30T03:56:58;17.15;;;11.35;;
77123;SDS011;66079;47.646;19.130;2023-04-30T04:00:01;16.40;;;10.97;;
77123;SDS011;66079;47.646;19.130;2023-04-30T04:03:14;13.50;;;10.57;;
77123;SDS011;66079;47.646;19.130;2023-04-30T04:06:17;20.00;;;11.88;;
77123;SDS011;66079;47.646;19.130;2023-04-30T04:09:21;16.75;;;11.68;;
77123;SDS011;66079;47.646;19.130;2023-04-30T04:12:24;17.85;;;12.07;;
77123;SDS011;66079;47.646;19.130;2023-04-30T04:15:26;17.47;;;11.53;;
77123;SDS011;66079;47.646;19.130;2023-04-30T04:18:29;18.30;;;12.10;;
77123;SDS011;66079;47.646;19.130;2023-04-30T04:21:31;17.70;;;11.95;;
77123;SDS011;66079;47.646;19.130;2023-04-30T04:24:38;15.02;;;11.10;;
77123;SDS011;66079;47.646;19.130;2023-04-30T04:27:40;17.80;;;11.55;;
77123;SDS011;66079;47.646;19.130;2023-04-30T04:30:43;18.27;;;11.07;;
77123;SDS011;66079;47.646;19.130;2023-04-30T04:33:46;16.17;;;11.15;;
77123;SDS011;66079;47.646;19.130;2023-04-30T04:36:49;15.52;;;10.70;;
77123;SDS011;66079;47.646;19.130;2023-04-30T04:39:51;14.35;;;10.65;;
77123;SDS011;66079;47.646;19.130;2023-04-30T04:42:55;14.48;;;10.80;;
77123;SDS011;66079;47.646;19.130;2023-04-30T04:45:58;14.00;;;10.80;;
77123;SDS011;66079;47.646;19.130;2023-04-30T04:49:01;12.90;;;9.80;;
77123;SDS011;66079;47.646;19.130;2023-04-30T04:52:03;16.08;;;11.30;;
77123;SDS011;66079;47.646;19.130;2023-04-30T04:55:06;14.55;;;9.68;;
77123;SDS011;66079;47.646;19.130;2023-04-30T04:58:10;15.27;;;10.75;;
77123;SDS011;66079;47.646;19.130;2023-04-30T05:01:13;14.17;;;10.17;;
77123;SDS011;66079;47.646;19.130;2023-04-30T05:04:16;14.70;;;10.68;;
77123;SDS011;66079;47.646;19.130;2023-04-30T05:07:19;13.43;;;10.35;;
77123;SDS011;66079;47.646;19.130;2023-04-30T05:10:22;13.40;;;11.13;;
77123;SDS011;66079;47.646;19.130;2023-04-30T05:13:25;14.10;;;10.73;;
77123;SDS011;66079;47.646;19.130;2023-04-30T05:16:28;12.70;;;9.93;;
77123;SDS011;66079;47.646;19.130;2023-04-30T05:19:31;14.40;;;10.40;;
77123;SDS011;66079;47.646;19.130;2023-04-30T05:22:34;14.52;;;10.65;;
77123;SDS011;66079;47.646;19.130;2023-04-30T05:25:36;13.65;;;10.02;;
77123;SDS011;66079;47.646;19.130;2023-04-30T05:28:39;14.38;;;10.30;;
77123;SDS011;66079;47.646;19.130;2023-04-30T05:31:42;13.23;;;10.43;;
77123;SDS011;66079;47.646;19.130;2023-04-30T05:34:44;13.55;;;10.23;;
77123;SDS011;66079;47.646;19.130;2023-04-30T05:37:47;14.70;;;10.20;;
77123;SDS011;66079;47.646;19.130;2023-04-30T05:40:50;15.07;;;10.18;;
77123;SDS011;66079;47.646;19.130;2023-04-30T05:43:52;14.30;;;10.90;;
77123;SDS011;66079;47.646;19.130;2023-04-30T05:46:55;13.60;;;9.90;;
77123;SDS011;66079;47.646;19.130;2023-04-30T05:49:57;13.80;;;10.82;;
77123;SDS011;66079;47.646;19.130;2023-04-30T05:53:00;13.82;;;10.65;;
77123;SDS011;66079;47.646;19.130;2023-04-30T05:56:02;13.35;;;9.95;;
77123;SDS011;66079;47.646;19.130;2023-04-30T05:59:05;12.38;;;10.02;;
77123;SDS011;66079;47.646;19.130;2023-04-30T06:02:08;12.47;;;10.03;;
77123;SDS011;66079;47.646;19.130;2023-04-30T06:05:10;13.57;;;9.38;;
77123;SDS011;66079;47.646;19.130;2023-04-30T06:08:17;13.65;;;9.68;;
77123;SDS011;66079;47.646;19.130;2023-04-30T06:11:19;12.20;;;9.40;;
77123;SDS011;66079;47.646;19.130;2023-04-30T06:14:22;11.95;;;9.18;;
77123;SDS011;66079;47.646;19.130;2023-04-30T06:17:25;10.13;;;8.40;;
77123;SDS011;66079;47.646;19.130;2023-04-30T06:20:27;10.77;;;8.35;;
77123;SDS011;66079;47.646;19.130;2023-04-30T06:23:30;10.32;;;8.10;;
77123;SDS011;66079;47.646;19.130;2023-04-30T06:26:33;8.13;;;6.82;;
77123;SDS011;66079;47.646;19.130;2023-04-30T06:29:35;7.85;;;6.45;;
77123;SDS011;66079;47.646;19.130;2023-04-30T06:32:38;8.43;;;6.27;;
77123;SDS011;66079;47.646;19.130;2023-04-30T06:35:41;7.45;;;5.63;;
77123;SDS011;66079;47.646;19.130;2023-04-30T06:38:43;5.88;;;5.10;;
77123;SDS011;66079;47.646;19.130;2023-04-30T06:41:46;6.38;;;5.18;;
77123;SDS011;66079;47.646;19.130;2023-04-30T06:44:49;5.97;;;4.82;;
77123;SDS011;66079;47.646;19.130;2023-04-30T06:47:51;6.90;;;4.93;;
77123;SDS011;66079;47.646;19.130;2023-04-30T06:50:54;4.88;;;4.38;;
77123;SDS011;66079;47.646;19.130;2023-04-30T06:53:57;6.07;;;4.63;;
77123;SDS011;66079;47.646;19.130;2023-04-30T06:57:00;5.65;;;4.78;;
77123;SDS011;66079;47.646;19.130;2023-04-30T07:00:04;5.80;;;4.47;;
77123;SDS011;66079;47.646;19.130;2023-04-30T07:03:07;5.07;;;4.57;;
77123;SDS011;66079;47.646;19.130;2023-04-30T07:06:10;6.82;;;4.53;;
77123;SDS011;66079;47.646;19.130;2023-04-30T07:09:13;5.57;;;4.90;;
77123;SDS011;66079;47.646;19.130;2023-04-30T07:12:16;5.68;;;4.60;;
77123;SDS011;66079;47.646;19.130;2023-04-30T07:15:19;5.43;;;4.70;;
77123;SDS011;66079;47.646;19.130;2023-04-30T07:18:21;5.20;;;4.60;;
77123;SDS011;66079;47.646;19.130;2023-04-30T07:21:24;6.00;;;5.40;;
77123;SDS011;66079;47.646;19.130;2023-04-30T07:24:27;6.15;;;4.90;;
77123;SDS011;66079;47.646;19.130;2023-04-30T07:27:30;5.03;;;4.43;;
77123;SDS011;66079;47.646;19.130;2023-04-30T07:30:32;5.20;;;4.38;;
77123;SDS011;66079;47.646;19.130;2023-04-30T07:33:35;8.97;;;4.73;;
77123;SDS011;66079;47.646;19.130;2023-04-30T07:36:38;5.40;;;3.95;;
77123;SDS011;66079;47.646;19.130;2023-04-30T07:39:41;5.03;;;4.20;;
77123;SDS011;66079;47.646;19.130;2023-04-30T07:42:43;4.82;;;4.32;;
77123;SDS011;66079;47.646;19.130;2023-04-30T07:45:46;5.72;;;3.92;;
77123;SDS011;66079;47.646;19.130;2023-04-30T07:48:50;4.13;;;3.30;;
77123;SDS011;66079;47.646;19.130;2023-04-30T07:51:53;5.28;;;3.90;;
77123;SDS011;66079;47.646;19.130;2023-04-30T07:54:56;3.80;;;3.40;;
77123;SDS011;66079;47.646;19.130;2023-04-30T07:57:58;3.85;;;3.47;;
77123;SDS011;66079;47.646;19.130;2023-04-30T08:01:01;3.63;;;3.25;;
77123;SDS011;66079;47.646;19.130;2023-04-30T08:04:05;3.40;;;2.73;;
77123;SDS011;66079;47.646;19.130;2023-04-30T08:07:08;3.65;;;2.50;;
77123;SDS011;66079;47.646;19.130;2023-04-30T08:10:11;3.45;;;2.88;;
77123;SDS011;66079;47.646;19.130;2023-04-30T08:13:13;3.03;;;2.70;;
77123;SDS011;66079;47.646;19.130;2023-04-30T08:16:16;3.05;;;2.50;;
77123;SDS011;66079;47.646;19.130;2023-04-30T08:19:19;3.00;;;2.50;;
77123;SDS011;66079;47.646;19.130;2023-04-30T08:22:22;2.83;;;2.63;;
77123;SDS011;66079;47.646;19.130;2023-04-30T08:25:24;3.13;;;2.60;;
77123;SDS011;66079;47.646;19.130;2023-04-30T08:28:27;2.67;;;2.28;;
77123;SDS011;66079;47.646;19.130;2023-04-30T08:31:30;2.92;;;2.60;;
77123;SDS011;66079;47.646;19.130;2023-04-30T08:34:33;2.43;;;2.23;;
77123;SDS011;66079;47.646;19.130;2023-04-30T08:37:35;2.20;;;2.00;;
77123;SDS011;66079;47.646;19.130;2023-04-30T08:40:39;3.20;;;2.15;;
77123;SDS011;66079;47.646;19.130;2023-04-30T08:43:45;2.45;;;2.13;;
77123;SDS011;66079;47.646;19.130;2023-04-30T08:46:51;3.28;;;2.40;;
77123;SDS011;66079;47.646;19.130;2023-04-30T08:49:55;2.37;;;1.90;;
77123;SDS011;66079;47.646;19.130;2023-04-30T08:52:58;2.00;;;1.75;;
77123;SDS011;66079;47.646;19.130;2023-04-30T08:56:02;2.42;;;2.10;;
77123;SDS011;66079;47.646;19.130;2023-04-30T08:59:05;4.30;;;1.70;;
77123;SDS011;66079;47.646;19.130;2023-04-30T09:02:09;2.33;;;2.00;;
77123;SDS011;66079;47.646;19.130;2023-04-30T09:05:12;2.40;;;2.07;;
77123;SDS011;66079;47.646;19.130;2023-04-30T09:08:17;2.67;;;1.90;;
77123;SDS011;66079;47.646;19.130;2023-04-30T09:11:27;2.10;;;1.90;;
77123;SDS011;66079;47.646;19.130;2023-04-30T09:14:33;2.47;;;1.88;;
77123;SDS011;66079;47.646;19.130;2023-04-30T09:17:41;2.20;;;2.00;;
77123;SDS011;66079;47.646;19.130;2023-04-30T09:20:57;2.90;;;2.10;;
77123;SDS011;66079;47.646;19.130;2023-04-30T09:24:03;3.25;;;2.10;;
77123;SDS011;66079;47.646;19.130;2023-04-30T09:27:19;2.40;;;2.20;;
77123;SDS011;66079;47.646;19.130;2023-04-30T09:30:29;2.22;;;1.98;;
77123;SDS011;66079;47.646;19.130;2023-04-30T09:33:45;2.10;;;1.90;;
77123;SDS011;66079;47.646;19.130;2023-04-30T09:36:52;4.13;;;2.40;;
77123;SDS011;66079;47.646;19.130;2023-04-30T09:39:58;2.47;;;2.28;;
77123;SDS011;66079;47.646;19.130;2023-04-30T09:43:01;2.85;;;2.65;;
77123;SDS011;66079;47.646;19.130;2023-04-30T09:46:04;2.50;;;2.30;;
77123;SDS011;66079;47.646;19.130;2023-04-30T09:49:07;3.05;;;2.30;;
77123;SDS011;66079;47.646;19.130;2023-04-30T09:52:13;2.40;;;2.17;;
77123;SDS011;66079;47.646;19.130;2023-04-30T09:55:18;2.55;;;2.28;;
77123;SDS011;66079;47.646;19.130;2023-04-30T09:58:21;2.78;;;2.58;;
77123;SDS011;66079;47.646;19.130;2023-04-30T10:01:26;2.85;;;2.55;;
77123;SDS011;66079;47.646;19.130;2023-04-30T10:04:37;3.35;;;2.40;;
77123;SDS011;66079;47.646;19.130;2023-04-30T10:07:41;2.53;;;2.03;;
77123;SDS011;66079;47.646;19.130;2023-04-30T10:10:45;2.28;;;2.08;;
77123;SDS011;66079;47.646;19.130;2023-04-30T10:13:53;2.78;;;1.98;;
77123;SDS011;66079;47.646;19.130;2023-04-30T10:17:10;2.42;;;2.22;;
77123;SDS011;66079;47.646;19.130;2023-04-30T10:20:15;3.35;;;1.70;;
77123;SDS011;66079;47.646;19.130;2023-04-30T10:23:20;3.07;;;1.90;;
77123;SDS011;66079;47.646;19.130;2023-04-30T10:26:23;2.65;;;2.03;;
77123;SDS011;66079;47.646;19.130;2023-04-30T10:29:27;2.10;;;1.90;;
77123;SDS011;66079;47.646;19.130;2023-04-30T10:32:37;2.35;;;2.00;;
77123;SDS011;66079;47.646;19.130;2023-04-30T10:35:52;2.10;;;1.90;;
77123;SDS011;66079;47.646;19.130;2023-04-30T10:39:00;2.53;;;2.33;;
77123;SDS011;66079;47.646;19.130;2023-04-30T10:42:05;2.40;;;2.20;;
77123;SDS011;66079;47.646;19.130;2023-04-30T10:45:11;2.15;;;1.70;;
77123;SDS011;66079;47.646;19.130;2023-04-30T10:48:14;3.17;;;2.10;;
77123;SDS011;66079;47.646;19.130;2023-04-30T10:51:25;2.33;;;2.13;;
77123;SDS011;66079;47.646;19.130;2023-04-30T10:54:48;2.13;;;2.00;;
77123;SDS011;66079;47.646;19.130;2023-04-30T10:57:51;2.28;;;2.08;;
77123;SDS011;66079;47.646;19.130;2023-04-30T11:01:02;2.33;;;2.13;;
77123;SDS011;66079;47.646;19.130;2023-04-30T11:04:24;2.20;;;2.00;;
77123;SDS011;66079;47.646;19.130;2023-04-30T11:07:27;2.40;;;2.20;;
77123;SDS011;66079;47.646;19.130;2023-04-30T11:10:33;2.37;;;2.20;;
77123;SDS011;66079;47.646;19.130;2023-04-30T11:13:37;2.40;;;1.95;;
77123;SDS011;66079;47.646;19.130;2023-04-30T11:16:48;1.90;;;1.63;;
77123;SDS011;66079;47.646;19.130;2023-04-30T11:19:52;1.77;;;1.63;;
77123;SDS011;66079;47.646;19.130;2023-04-30T11:23:11;2.20;;;2.00;;
77123;SDS011;66079;47.646;19.130;2023-04-30T11:26:29;1.87;;;1.77;;
77123;SDS011;66079;47.646;19.130;2023-04-30T11:29:52;2.13;;;1.92;;
77123;SDS011;66079;47.646;19.130;2023-04-30T11:32:58;2.30;;;2.20;;
77123;SDS011;66079;47.646;19.130;2023-04-30T11:36:01;2.10;;;1.65;;
77123;SDS011;66079;47.646;19.130;2023-04-30T11:39:04;2.20;;;1.85;;
77123;SDS011;66079;47.646;19.130;2023-04-30T11:42:09;1.70;;;1.53;;
77123;SDS011;66079;47.646;19.130;2023-04-30T11:45:12;1.60;;;1.50;;
77123;SDS011;66079;47.646;19.130;2023-04-30T11:48:19;2.10;;;1.90;;
77123;SDS011;66079;47.646;19.130;2023-04-30T11:51:23;3.67;;;1.50;;
77123;SDS011;66079;47.646;19.130;2023-04-30T11:54:29;1.77;;;1.67;;
77123;SDS011;66079;47.646;19.130;2023-04-30T11:57:39;2.00;;;1.80;;
77123;SDS011;66079;47.646;19.130;2023-04-30T12:00:43;1.80;;;1.67;;
77123;SDS011;66079;47.646;19.130;2023-04-30T12:03:49;2.22;;;2.03;;
77123;SDS011;66079;47.646;19.130;2023-04-30T12:06:54;2.03;;;1.83;;
77123;SDS011;66079;47.646;19.130;2023-04-30T12:09:57;2.00;;;1.80;;
77123;SDS011;66079;47.646;19.130;2023-04-30T12:13:00;1.70;;;1.60;;
77123;SDS011;66079;47.646;19.130;2023-04-30T12:16:03;1.90;;;1.80;;
77123;SDS011;66079;47.646;19.130;2023-04-30T12:19:06;1.73;;;1.60;;
77123;SDS011;66079;47.646;19.130;2023-04-30T12:22:10;2.17;;;1.85;;
77123;SDS011;66079;47.646;19.130;2023-04-30T12:25:14;1.70;;;1.50;;
77123;SDS011;66079;47.646;19.130;2023-04-30T12:28:18;1.27;;;1.17;;
77123;SDS011;66079;47.646;19.130;2023-04-30T12:31:24;1.80;;;1.27;;
77123;SDS011;66079;47.646;19.130;2023-04-30T12:34:27;1.50;;;1.40;;
77123;SDS011;66079;47.646;19.130;2023-04-30T12:37:34;1.90;;;1.13;;
77123;SDS011;66079;47.646;19.130;2023-04-30T12:40:37;1.92;;;1.33;;
77123;SDS011;66079;47.646;19.130;2023-04-30T12:43:43;1.60;;;1.40;;
77123;SDS011;66079;47.646;19.130;2023-04-30T12:46:46;1.95;;;1.30;;
77123;SDS011;66079;47.646;19.130;2023-04-30T12:49:54;1.90;;;1.55;;
77123;SDS011;66079;47.646;19.130;2023-04-30T12:53:00;2.10;;;1.80;;
77123;SDS011;66079;47.646;19.130;2023-04-30T12:56:10;2.35;;;1.85;;
77123;SDS011;66079;47.646;19.130;2023-04-30T12:59:19;1.73;;;1.60;;
77123;SDS011;66079;47.646;19.130;2023-04-30T13:02:22;1.63;;;1.50;;
77123;SDS011;66079;47.646;19.130;2023-04-30T13:05:26;1.30;;;1.20;;
77123;SDS011;66079;47.646;19.130;2023-04-30T13:08:29;1.60;;;1.50;;
77123;SDS011;66079;47.646;19.130;2023-04-30T13:11:35;1.58;;;1.48;;
77123;SDS011;66079;47.646;19.130;2023-04-30T13:14:37;1.30;;;1.20;;
77123;SDS011;66079;47.646;19.130;2023-04-30T13:17:44;1.27;;;1.10;;
77123;SDS011;66079;47.646;19.130;2023-04-30T13:20:47;3.17;;;1.30;;
77123;SDS011;66079;47.646;19.130;2023-04-30T13:23:49;1.98;;;1.27;;
77123;SDS011;66079;47.646;19.130;2023-04-30T13:26:55;1.40;;;1.30;;
77123;SDS011;66079;47.646;19.130;2023-04-30T13:30:01;1.30;;;1.20;;
77123;SDS011;66079;47.646;19.130;2023-04-30T13:33:04;1.30;;;1.20;;
77123;SDS011;66079;47.646;19.130;2023-04-30T13:36:07;1.60;;;1.40;;
77123;SDS011;66079;47.646;19.130;2023-04-30T13:39:10;1.98;;;1.55;;
77123;SDS011;66079;47.646;19.130;2023-04-30T13:42:13;1.52;;;1.42;;
77123;SDS011;66079;47.646;19.130;2023-04-30T13:45:16;1.50;;;1.40;;
77123;SDS011;66079;47.646;19.130;2023-04-30T13:48:18;2.22;;;1.30;;
77123;SDS011;66079;47.646;19.130;2023-04-30T13:51:21;1.52;;;1.40;;
77123;SDS011;66079;47.646;19.130;2023-04-30T13:54:24;2.47;;;1.80;;
77123;SDS011;66079;47.646;19.130;2023-04-30T13:57:26;1.75;;;1.65;;
77123;SDS011;66079;47.646;19.130;2023-04-30T14:00:31;1.57;;;1.47;;
77123;SDS011;66079;47.646;19.130;2023-04-30T14:03:33;1.65;;;1.10;;
77123;SDS011;66079;47.646;19.130;2023-04-30T14:06:36;1.20;;;1.10;;
77123;SDS011;66079;47.646;19.130;2023-04-30T14:09:40;1.10;;;1.10;;
77123;SDS011;66079;47.646;19.130;2023-04-30T14:12:42;2.05;;;1.70;;
77123;SDS011;66079;47.646;19.130;2023-04-30T14:15:45;1.60;;;1.40;;
77123;SDS011;66079;47.646;19.130;2023-04-30T14:18:48;1.65;;;1.40;;
77123;SDS011;66079;47.646;19.130;2023-04-30T14:21:51;1.13;;;1.02;;
77123;SDS011;66079;47.646;19.130;2023-04-30T14:24:53;1.33;;;1.20;;
77123;SDS011;66079;47.646;19.130;2023-04-30T14:27:56;1.20;;;1.10;;
77123;SDS011;66079;47.646;19.130;2023-04-30T14:30:58;3.60;;;2.00;;
77123;SDS011;66079;47.646;19.130;2023-04-30T14:34:02;4.25;;;2.10;;
77123;SDS011;66079;47.646;19.130;2023-04-30T14:37:05;1.90;;;1.80;;
77123;SDS011;66079;47.646;19.130;2023-04-30T14:40:08;2.05;;;1.85;;
77123;SDS011;66079;47.646;19.130;2023-04-30T14:43:11;4.00;;;1.90;;
77123;SDS011;66079;47.646;19.130;2023-04-30T14:46:14;2.57;;;2.10;;
77123;SDS011;66079;47.646;19.130;2023-04-30T14:49:16;3.05;;;2.15;;
77123;SDS011;66079;47.646;19.130;2023-04-30T14:52:19;2.65;;;2.13;;
77123;SDS011;66079;47.646;19.130;2023-04-30T14:55:22;2.58;;;2.15;;
77123;SDS011;66079;47.646;19.130;2023-04-30T14:58:25;4.88;;;2.60;;
77123;SDS011;66079;47.646;19.130;2023-04-30T15:01:28;4.47;;;2.30;;
77123;SDS011;66079;47.646;19.130;2023-04-30T15:04:32;2.60;;;2.40;;
77123;SDS011;66079;47.646;19.130;2023-04-30T15:07:34;4.93;;;2.17;;
77123;SDS011;66079;47.646;19.130;2023-04-30T15:10:38;4.30;;;2.60;;
77123;SDS011;66079;47.646;19.130;2023-04-30T15:13:40;3.28;;;2.67;;
77123;SDS011;66079;47.646;19.130;2023-04-30T15:16:43;2.93;;;2.63;;
77123;SDS011;66079;47.646;19.130;2023-04-30T15:19:45;4.28;;;2.83;;
77123;SDS011;66079;47.646;19.130;2023-04-30T15:22:48;3.65;;;3.10;;
77123;SDS011;66079;47.646;19.130;2023-04-30T15:25:51;3.63;;;3.10;;
77123;SDS011;66079;47.646;19.130;2023-04-30T15:28:54;3.30;;;3.00;;
77123;SDS011;66079;47.646;19.130;2023-04-30T15:31:57;4.50;;;2.80;;
77123;SDS011;66079;47.646;19.130;2023-04-30T15:35:00;3.83;;;3.08;;
77123;SDS011;66079;47.646;19.130;2023-04-30T15:38:03;3.35;;;2.92;;
77123;SDS011;66079;47.646;19.130;2023-04-30T15:41:06;3.83;;;3.47;;
77123;SDS011;66079;47.646;19.130;2023-04-30T15:44:08;3.90;;;3.47;;
77123;SDS011;66079;47.646;19.130;2023-04-30T15:47:11;4.80;;;3.93;;
77123;SDS011;66079;47.646;19.130;2023-04-30T15:50:14;4.88;;;3.42;;
77123;SDS011;66079;47.646;19.130;2023-04-30T15:53:16;4.00;;;2.95;;
77123;SDS011;66079;47.646;19.130;2023-04-30T15:56:19;3.83;;;2.88;;
77123;SDS011;66079;47.646;19.130;2023-04-30T15:59:26;4.63;;;3.13;;
77123;SDS011;66079;47.646;19.130;2023-04-30T16:02:29;4.03;;;3.37;;
77123;SDS011;66079;47.646;19.130;2023-04-30T16:05:32;4.65;;;3.00;;
77123;SDS011;66079;47.646;19.130;2023-04-30T16:08:41;3.30;;;3.00;;
77123;SDS011;66079;47.646;19.130;2023-04-30T16:11:47;5.70;;;3.30;;
77123;SDS011;66079;47.646;19.130;2023-04-30T16:14:50;3.85;;;3.05;;
77123;SDS011;66079;47.646;19.130;2023-04-30T16:17:52;4.23;;;3.57;;
77123;SDS011;66079;47.646;19.130;2023-04-30T16:20:55;8.18;;;5.03;;
77123;SDS011;66079;47.646;19.130;2023-04-30T16:23:58;5.40;;;3.90;;
77123;SDS011;66079;47.646;19.130;2023-04-30T16:27:01;4.30;;;3.40;;
77123;SDS011;66079;47.646;19.130;2023-04-30T16:30:04;3.63;;;3.33;;
77123;SDS011;66079;47.646;19.130;2023-04-30T16:33:07;4.03;;;2.77;;
77123;SDS011;66079;47.646;19.130;2023-04-30T16:36:10;3.67;;;3.00;;
77123;SDS011;66079;47.646;19.130;2023-04-30T16:39:13;4.68;;;2.92;;
77123;SDS011;66079;47.646;19.130;2023-04-30T16:42:18;3.20;;;2.85;;
77123;SDS011;66079;47.646;19.130;2023-04-30T16:45:21;4.00;;;3.03;;
77123;SDS011;66079;47.646;19.130;2023-04-30T16:48:23;3.93;;;3.17;;
77123;SDS011;66079;47.646;19.130;2023-04-30T16:51:26;3.72;;;3.08;;
77123;SDS011;66079;47.646;19.130;2023-04-30T16:54:28;3.83;;;3.28;;
77123;SDS011;66079;47.646;19.130;2023-04-30T16:57:31;4.15;;;3.25;;
77123;SDS011;66079;47.646;19.130;2023-04-30T17:00:34;3.58;;;3.00;;
77123;SDS011;66079;47.646;19.130;2023-04-30T17:03:37;3.20;;;2.90;;
77123;SDS011;66079;47.646;19.130;2023-04-30T17:06:39;5.25;;;2.80;;
77123;SDS011;66079;47.646;19.130;2023-04-30T17:09:42;3.55;;;3.22;;
77123;SDS011;66079;47.646;19.130;2023-04-30T17:12:45;3.55;;;3.00;;
77123;SDS011;66079;47.646;19.130;2023-04-30T17:15:48;3.72;;;3.10;;
77123;SDS011;66079;47.646;19.130;2023-04-30T17:18:50;3.83;;;3.23;;
77123;SDS011;66079;47.646;19.130;2023-04-30T17:21:53;4.95;;;3.45;;
77123;SDS011;66079;47.646;19.130;2023-04-30T17:24:56;3.55;;;3.15;;
77123;SDS011;66079;47.646;19.130;2023-04-30T17:28:01;4.10;;;3.42;;
77123;SDS011;66079;47.646;19.130;2023-04-30T17:31:03;4.63;;;3.90;;
77123;SDS011;66079;47.646;19.130;2023-04-30T17:34:08;4.30;;;3.90;;
77123;SDS011;66079;47.646;19.130;2023-04-30T17:37:11;4.75;;;3.80;;
77123;SDS011;66079;47.646;19.130;2023-04-30T17:40:14;5.45;;;3.97;;
77123;SDS011;66079;47.646;19.130;2023-04-30T17:43:17;4.90;;;4.10;;
77123;SDS011;66079;47.646;19.130;2023-04-30T17:46:21;6.72;;;4.88;;
77123;SDS011;66079;47.646;19.130;2023-04-30T17:49:24;6.17;;;4.80;;
77123;SDS011;66079;47.646;19.130;2023-04-30T17:52:27;6.28;;;4.70;;
77123;SDS011;66079;47.646;19.130;2023-04-30T17:55:29;8.60;;;5.57;;
77123;SDS011;66079;47.646;19.130;2023-04-30T17:58:33;8.75;;;5.55;;
77123;SDS011;66079;47.646;19.130;2023-04-30T18:01:37;15.88;;;8.85;;
77123;SDS011;66079;47.646;19.130;2023-04-30T18:04:41;12.27;;;8.10;;
77123;SDS011;66079;47.646;19.130;2023-04-30T18:07:45;10.55;;;7.20;;
77123;SDS011;66079;47.646;19.130;2023-04-30T18:10:48;9.70;;;6.72;;
77123;SDS011;66079;47.646;19.130;2023-04-30T18:13:51;9.48;;;7.70;;
77123;SDS011;66079;47.646;19.130;2023-04-30T18:16:54;11.30;;;7.80;;
77123;SDS011;66079;47.646;19.130;2023-04-30T18:19:57;12.83;;;8.43;;
77123;SDS011;66079;47.646;19.130;2023-04-30T18:23:00;9.30;;;6.80;;